AirNav   Pilot Hours Calculator
 
 539 users online  

KVLL Oakland/Troy Airport
Troy, Michigan, USA

GOING TO TROY?


FAA INFORMATION EFFECTIVE 25 MARCH 2021

Location

FAA Identifier: VLL
Lat/Long: 42-32-34.6000N 083-10-40.4000W
42-32.576667N 083-10.673333W
42.5429444,-83.1778889
(estimated)
Elevation: 727.2 ft. / 221.7 m (surveyed)
Variation: 06W (1995)
From city: 2 miles E of TROY, MI
Time zone: UTC -4 (UTC -5 during Standard Time)
Zip code: 48084

Airport Operations

Airport use: Open to the public
Control tower: no
ARTCC: CLEVELAND CENTER
FSS: LANSING FLIGHT SERVICE STATION
NOTAMs facility: VLL (NOTAM-D service available)
Attendance: 0800-1800
Pattern altitude: 1727.2 ft. MSL
Wind indicator: lighted
Segmented circle: no
Lights: ACTVT MIRL RY 09/27 & PAPI RYS 09 & 27 - CTAF.
Beacon: white-green (lighted land airport)
Operates sunset to sunrise.
Landing fee: yes

Airport Communications

CTAF/UNICOM: 123.05
WX AWOS-3: 119.475 (248-288-4649)
DETROIT APPROACH: 134.3
DETROIT DEPARTURE: 134.3
WX ASOS at DET (11 nm SE): PHONE 313-371-9696
WX ASOS at PTK (13 nm NW): 125.025 (248-886-8551)

Nearby radio navigation aids

VOR radial/distance  VOR name  Freq  Var
SVMr069/20.1SALEM VORTAC114.3003W
DXOr029/21.5DETROIT VOR/DME113.4006W
CRLr026/32.2CARLETON VOR/DME115.7003W
FNTr141/35.7FLINT VORTAC116.9006W

 
NDB name  Hdg/Dist  Freq  Var  ID
GROSSE ILE005/26.541907WRYS .-. -.-- ...

Airport Services

Fuel available: 100LL JET-A
Parking: tiedowns
Airframe service: NONE
Powerplant service: NONE

Runway Information

Runway 9/27

Dimensions: 3549 x 60 ft. / 1082 x 18 m
Surface: asphalt, in fair condition
Runway edge lights: medium intensity
RUNWAY 9  RUNWAY 27
Latitude: 42-32.575973N42-32.578848N
Longitude: 083-11.068925W083-10.278788W
Elevation: 727.0 ft.701.0 ft.
Traffic pattern: leftleft
Runway heading: 096 magnetic, 090 true276 magnetic, 270 true
Markings: nonprecision, in good conditionnonprecision, in good condition
Visual slope indicator: 2-light PAPI on right (3.75 degrees glide path)2-light PAPI on left (3.75 degrees glide path)
Runway end identifier lights: nono
Touchdown point: yes, no lightsyes, no lights
Obstructions: 19 ft. tree, 207 ft. from runway, 137 ft. right of centerline30 ft. tree, 200 ft. from runway, 125 ft. left of centerline

Airport Ownership and Management from official FAA records

Ownership: Publicly-owned
Owner: OAKLAND COUNTY
6500 HIGHLAND RD
WATERFORD, MI 48327
Phone 248-288-6100
Manager: CHERYL BUSH
6500 HIGHLAND RD
WATERFORD, MI 48327
Phone 248-666-3900
ARPT PHYS ADS: 2672 INDUSTRIAL ROW DR, TROY, MI 48084.

Airport Operational Statistics

Aircraft based on the field: 109
Single engine airplanes: 96
Multi engine airplanes: 5
Helicopters: 7
Ultralights: 1
    
Aircraft operations: avg 82/day *
50% transient general aviation
50% local general aviation
* for 12-month period ending 31 December 2019

Additional Remarks

DEER AND BIRDS ON & INVOF ARPT.
RY 09 +3 FT BERM 316 FT FM THLD.
NO TGL OR PRACTICE TFC PATTERNS.
FOR CD CTC DETROIT APCH AT 800-499-8181.

Instrument Procedures

NOTE: All procedures below are presented as PDF files. If you need a reader for these files, you should download the free Adobe Reader.

NOT FOR NAVIGATION. Please procure official charts for flight.
FAA instrument procedures published for use from 25 March 2021 at 0901Z to 22 April 2021 at 0900z.

 
STARs - Standard Terminal Arrivals
FOREY TWO (RNAV)   download (177KB)
OKLND ONE (RNAV)   download (159KB)
PETTE TWO (RNAV)   download (220KB)
RRALF THREE (RNAV)   download (179KB)
 
IAPs - Instrument Approach Procedures
RNAV (GPS) RWY 09   download (194KB)
 
Departure Procedures
BARII TWO (RNAV)   download (172KB)
CCOBB TWO (RNAV)   download (216KB)
CLVIN TWO (RNAV)   download (186KB)
HHOWE THREE (RNAV)   download (203KB)
KAYLN TWO (RNAV)   download (180KB)
LIDDS TWO (RNAV)   download (195KB)
MIGGY TWO (RNAV)   download (214KB)
PAVYL TWO (RNAV)   download (191KB)
SNDRS TWO (RNAV)   download (227KB)
TRMML THREE (RNAV)   download (177KB)
ZETTR THREE (RNAV)   download (218KB)
NOTE: Special Take-Off Minimums/Departure Procedures apply   download (125KB)

Other nearby airports with instrument procedures:

KDET - Coleman A Young Municipal Airport (11 nm SE)
KPTK - Oakland County International Airport (13 nm NW)
KMTC - Selfridge Air National Guard Base (16 nm E)
1D2 - Canton-Plymouth-Mettetal Airport (17 nm SW)
57D - Ray Community Airport (17 nm NE)
D98 - Romeo State Airport (18 nm NE)
Y47 - Oakland Southwest Airport (20 nm W)
 
Loc | Ops | Rwys | IFR | FBO | Links
Com | Nav | Svcs | Stats | Notes
Area around KVLL (Oakland/Troy Airport)
 
Road maps at: MapQuest Bing Google
 
Aerial photo
WARNING: Photo may not be current or correct
Aerial photo of KVLL (Oakland/Troy Airport)
Photo by Jeff Schuster
Photo taken 29-Jun-2014
looking west.

Do you have a better or more recent aerial photo of Oakland/Troy Airport that you would like to share? If so, please send us your photo.

 
Sectional chart

 
Airport distance calculator
Flying to Oakland/Troy Airport? Find the distance to fly.

From to KVLL

Sunrise and sunset
Times for 13-Apr-2021
 Local
(UTC-4)
 Zulu
(UTC)
Morning civil twilight06:2710:27
Sunrise06:5610:56
Sunset20:1100:11
Evening civil twilight20:4000:40

Current date and time
Zulu (UTC)  13-Apr-2021 05:31:46
Local (UTC-4)  13-Apr-2021 01:31:46
 
METAR
KVLL 130515Z AUTO 24004KT 10SM SCT044 10/08 A2996 RMK AO2 T01000075
KDET 
11nm SE 
130453Z 25003KT 10SM CLR 12/07 A2993 RMK AO2 SLP137 T01170067 401670094
KPTK 
13nm NW 
130453Z AUTO 25005KT 10SM CLR 09/06 A2992 RMK AO2 SLP135 T00890061 401500078
KMTC 
17nm E 
130456Z AUTO 00000KT 10SM CLR 08/08 A2991 RMK AO2 SLP135 T00840084 401520081
CYQG 
19nm SE 
130500Z AUTO 25004KT 9SM CLR 09/07 A2994 RMK SLP142
KDTW 
20nm S 
130453Z 26005KT 10SM SCT045 SCT200 09/06 A2995 RMK AO2 SLP142 T00940061 401720089
TAF
KDET 
11nm SE 
121726Z 1218/1318 28008KT P6SM -SHRA SCT015 OVC030 FM122000 27008KT P6SM SCT025 BKN060 TEMPO 1222/1224 6SM -SHRA BKN025 OVC040 FM130400 24004KT P6SM SKC FM131400 21008KT P6SM BKN200
KPTK 
13nm NW 
121726Z 1218/1318 27005KT 6SM -SHRA BKN015 OVC040 FM121900 27008KT P6SM SCT025 BKN060 TEMPO 1222/1224 6SM -SHRA BKN025 OVC040 FM130400 24004KT P6SM SKC FM131400 21008KT P6SM BKN200
KMTC 
17nm E 
130100Z 1301/1407 28006KT 9999 FEW045 BKN075 QNH2981INS BECMG 1303/1304 25006KT 9999 FEW020 SCT040 QNH2988INS BECMG 1309/1310 26009KT 9999 SKC QNH2996INS BECMG 1315/1316 23012G18KT 9999 FEW060 BKN250 QNH3000INS BECMG 1323/1324 23006KT 9999 SCT250 QNH3000INS TX16/1320Z TN05/1311Z LAST NO AMDS AFT 1303 NEXT 1309
CYQG 
19nm SE 
130107Z 1301/1324 VRB03KT P6SM OVC040 FM130300 29008KT P6SM SCT040 FM131400 22008KT P6SM FEW030 BECMG 1316/1318 22015KT FM132100 21012G22KT P6SM SCT060 RMK FCST BASED ON AUTO OBS. NXT FCST BY 130600Z
KDTW 
20nm S 
130257Z 1303/1406 28004KT P6SM SCT060 FM130600 25004KT P6SM SKC FM131400 21008G16KT P6SM BKN200 FM140000 25005KT P6SM SCT200
NOTAMs
Click for the latest NOTAMs
NOTAMs are issued by the DoD/FAA and will open in a separate window not controlled by AirNav.

 

 
 

FBO, Fuel Providers, and Aircraft Ground Support

  
 Business Name 
 
 Contact 
 
 Services / Description 
 
Fuel Prices
 
Comments
  
JDS Pump-N-Go 248-288-6100
[email]
Aviation fuel, Aircraft parking (ramp or tiedown), Hangar leasing / sales

More info about JDS Pump-N-Go
Avfuel
100LL Jet A
SS $5.51 $4.11 
 Updated 12-Apr-2021
 
   write
SS=Self service
Update Fuel Prices
 

Would you like to see your business listed on this page?

 If your business provides an interesting product or service to pilots, flight crews, aircraft, or users of the Oakland/Troy Airport, you should consider listing it here.  To start the listing process, click on the button below
 
Add a business
 

Other Pages about Oakland/Troy Airport

Oakland/Troy Airport Website
Page from the Michigan Airport Directory (PDF)
 
Update a link
 
Copyright © AirNav, LLC. All rights reserved. Privacy Policy  Contact